sensor_id;sensor_type;location;lat;lon;timestamp;temperature;humidity
23081;DHT22;11708;50.570;8.532;2022-08-26T00:01:16;21.40;99.90
23081;DHT22;11708;50.570;8.532;2022-08-26T00:03:42;21.40;99.90
23081;DHT22;11708;50.570;8.532;2022-08-26T00:06:08;21.50;99.90
23081;DHT22;11708;50.570;8.532;2022-08-26T00:08:34;21.50;99.90
23081;DHT22;11708;50.570;8.532;2022-08-26T00:11:00;22.60;99.90
23081;DHT22;11708;50.570;8.532;2022-08-26T00:13:26;21.50;99.90
23081;DHT22;11708;50.570;8.532;2022-08-26T00:15:52;21.60;99.90
23081;DHT22;11708;50.570;8.532;2022-08-26T00:18:18;21.60;99.90
23081;DHT22;11708;50.570;8.532;2022-08-26T00:20:45;21.30;99.90
23081;DHT22;11708;50.570;8.532;2022-08-26T00:23:13;21.30;99.90
23081;DHT22;11708;50.570;8.532;2022-08-26T00:25:42;21.30;99.90
23081;DHT22;11708;50.570;8.532;2022-08-26T00:28:08;21.30;99.90
23081;DHT22;11708;50.570;8.532;2022-08-26T00:30:34;21.30;99.90
23081;DHT22;11708;50.570;8.532;2022-08-26T00:33:00;21.30;99.90
23081;DHT22;11708;50.570;8.532;2022-08-26T00:35:27;21.30;99.90
23081;DHT22;11708;50.570;8.532;2022-08-26T00:37:54;21.20;99.90
23081;DHT22;11708;50.570;8.532;2022-08-26T00:40:24;21.30;99.90
23081;DHT22;11708;50.570;8.532;2022-08-26T00:42:50;21.10;99.90
23081;DHT22;11708;50.570;8.532;2022-08-26T00:45:16;21.10;99.90
23081;DHT22;11708;50.570;8.532;2022-08-26T00:47:52;21.00;99.90
23081;DHT22;11708;50.570;8.532;2022-08-26T00:50:22;21.00;99.90
23081;DHT22;11708;50.570;8.532;2022-08-26T00:52:49;21.00;99.90
23081;DHT22;11708;50.570;8.532;2022-08-26T00:55:21;20.80;99.90
23081;DHT22;11708;50.570;8.532;2022-08-26T00:57:49;20.80;99.90
23081;DHT22;11708;50.570;8.532;2022-08-26T01:00:25;20.80;99.90
23081;DHT22;11708;50.570;8.532;2022-08-26T01:02:51;20.70;99.90
23081;DHT22;11708;50.570;8.532;2022-08-26T01:05:18;20.60;99.90
23081;DHT22;11708;50.570;8.532;2022-08-26T01:07:45;20.60;99.90
23081;DHT22;11708;50.570;8.532;2022-08-26T01:10:15;20.50;99.90
23081;DHT22;11708;50.570;8.532;2022-08-26T01:12:47;20.50;99.90
23081;DHT22;11708;50.570;8.532;2022-08-26T01:15:21;20.40;99.90
23081;DHT22;11708;50.570;8.532;2022-08-26T01:17:47;20.40;99.90
23081;DHT22;11708;50.570;8.532;2022-08-26T01:25:27;20.20;99.90
23081;DHT22;11708;50.570;8.532;2022-08-26T01:28:05;20.20;99.90
23081;DHT22;11708;50.570;8.532;2022-08-26T01:30:33;20.10;99.90
23081;DHT22;11708;50.570;8.532;2022-08-26T01:33:02;20.00;99.90
23081;DHT22;11708;50.570;8.532;2022-08-26T01:35:29;20.10;99.90
23081;DHT22;11708;50.570;8.532;2022-08-26T01:37:55;20.10;99.90
23081;DHT22;11708;50.570;8.532;2022-08-26T01:40:28;20.10;99.90
23081;DHT22;11708;50.570;8.532;2022-08-26T01:43:00;20.10;99.90
23081;DHT22;11708;50.570;8.532;2022-08-26T01:45:28;20.00;99.90
23081;DHT22;11708;50.570;8.532;2022-08-26T01:47:58;20.10;99.90
23081;DHT22;11708;50.570;8.532;2022-08-26T01:50:29;20.10;99.90
23081;DHT22;11708;50.570;8.532;2022-08-26T01:52:58;20.10;99.90
23081;DHT22;11708;50.570;8.532;2022-08-26T01:55:25;20.10;99.90
23081;DHT22;11708;50.570;8.532;2022-08-26T01:57:54;20.30;99.90
23081;DHT22;11708;50.570;8.532;2022-08-26T02:00:21;20.30;99.90
23081;DHT22;11708;50.570;8.532;2022-08-26T02:02:51;20.70;99.90
23081;DHT22;11708;50.570;8.532;2022-08-26T02:05:37;20.80;99.90
23081;DHT22;11708;50.570;8.532;2022-08-26T02:08:04;20.60;99.90
23081;DHT22;11708;50.570;8.532;2022-08-26T02:10:31;20.50;99.90
23081;DHT22;11708;50.570;8.532;2022-08-26T02:12:56;20.20;99.90
23081;DHT22;11708;50.570;8.532;2022-08-26T02:15:22;20.80;99.90
23081;DHT22;11708;50.570;8.532;2022-08-26T02:17:48;19.80;99.90
23081;DHT22;11708;50.570;8.532;2022-08-26T02:20:16;20.10;99.90
23081;DHT22;11708;50.570;8.532;2022-08-26T02:22:43;20.30;99.90
23081;DHT22;11708;50.570;8.532;2022-08-26T02:25:34;20.20;99.90
23081;DHT22;11708;50.570;8.532;2022-08-26T02:28:03;20.20;99.90
23081;DHT22;11708;50.570;8.532;2022-08-26T02:30:31;20.20;99.90
23081;DHT22;11708;50.570;8.532;2022-08-26T02:33:01;20.10;99.90
23081;DHT22;11708;50.570;8.532;2022-08-26T02:35:29;20.10;99.90
23081;DHT22;11708;50.570;8.532;2022-08-26T02:37:55;20.10;99.90
23081;DHT22;11708;50.570;8.532;2022-08-26T02:40:25;20.10;99.90
23081;DHT22;11708;50.570;8.532;2022-08-26T02:42:51;20.00;99.90
23081;DHT22;11708;50.570;8.532;2022-08-26T02:45:17;20.20;99.90
23081;DHT22;11708;50.570;8.532;2022-08-26T02:47:43;20.30;99.90
23081;DHT22;11708;50.570;8.532;2022-08-26T02:50:09;19.90;99.90
23081;DHT22;11708;50.570;8.532;2022-08-26T02:52:36;20.20;99.90
23081;DHT22;11708;50.570;8.532;2022-08-26T02:55:04;20.00;99.90
23081;DHT22;11708;50.570;8.532;2022-08-26T02:57:30;19.70;99.90
23081;DHT22;11708;50.570;8.532;2022-08-26T02:59:56;19.70;99.90
23081;DHT22;11708;50.570;8.532;2022-08-26T03:02:22;19.70;99.90
23081;DHT22;11708;50.570;8.532;2022-08-26T03:04:47;19.50;99.90
23081;DHT22;11708;50.570;8.532;2022-08-26T03:07:13;19.60;99.90
23081;DHT22;11708;50.570;8.532;2022-08-26T03:09:39;19.50;99.90
23081;DHT22;11708;50.570;8.532;2022-08-26T03:12:04;19.70;99.90
23081;DHT22;11708;50.570;8.532;2022-08-26T03:14:30;19.50;99.90
23081;DHT22;11708;50.570;8.532;2022-08-26T03:16:59;19.40;99.90
23081;DHT22;11708;50.570;8.532;2022-08-26T03:19:25;19.40;99.90
23081;DHT22;11708;50.570;8.532;2022-08-26T03:21:51;19.40;99.90
23081;DHT22;11708;50.570;8.532;2022-08-26T03:24:18;19.40;99.90
23081;DHT22;11708;50.570;8.532;2022-08-26T03:26:44;19.30;99.90
23081;DHT22;11708;50.570;8.532;2022-08-26T03:29:10;19.30;99.90
23081;DHT22;11708;50.570;8.532;2022-08-26T03:31:55;19.30;99.90
23081;DHT22;11708;50.570;8.532;2022-08-26T03:34:22;19.20;99.90
23081;DHT22;11708;50.570;8.532;2022-08-26T03:36:48;19.20;99.90
23081;DHT22;11708;50.570;8.532;2022-08-26T03:39:14;19.30;99.90
23081;DHT22;11708;50.570;8.532;2022-08-26T03:41:40;19.30;99.90
23081;DHT22;11708;50.570;8.532;2022-08-26T03:44:06;19.30;99.90
23081;DHT22;11708;50.570;8.532;2022-08-26T03:46:35;19.30;99.90
23081;DHT22;11708;50.570;8.532;2022-08-26T03:49:01;19.50;99.90
23081;DHT22;11708;50.570;8.532;2022-08-26T03:51:27;19.40;99.90
23081;DHT22;11708;50.570;8.532;2022-08-26T03:53:53;19.40;99.90
23081;DHT22;11708;50.570;8.532;2022-08-26T03:56:19;19.40;99.90
23081;DHT22;11708;50.570;8.532;2022-08-26T03:58:44;19.40;99.90
23081;DHT22;11708;50.570;8.532;2022-08-26T04:01:12;19.40;99.90
23081;DHT22;11708;50.570;8.532;2022-08-26T04:03:37;19.70;99.90
23081;DHT22;11708;50.570;8.532;2022-08-26T04:06:26;19.50;99.90
23081;DHT22;11708;50.570;8.532;2022-08-26T04:08:57;19.20;99.90
23081;DHT22;11708;50.570;8.532;2022-08-26T04:11:25;19.30;99.90
23081;DHT22;11708;50.570;8.532;2022-08-26T04:13:59;19.40;99.90
23081;DHT22;11708;50.570;8.532;2022-08-26T04:16:25;19.30;99.90
23081;DHT22;11708;50.570;8.532;2022-08-26T04:18:51;19.40;99.90
23081;DHT22;11708;50.570;8.532;2022-08-26T04:21:17;19.20;99.90
23081;DHT22;11708;50.570;8.532;2022-08-26T04:23:43;19.90;99.90
23081;DHT22;11708;50.570;8.532;2022-08-26T04:26:08;19.20;99.90
23081;DHT22;11708;50.570;8.532;2022-08-26T04:28:34;19.70;99.90
23081;DHT22;11708;50.570;8.532;2022-08-26T04:30:59;19.60;99.90
23081;DHT22;11708;50.570;8.532;2022-08-26T04:33:25;19.80;99.90
23081;DHT22;11708;50.570;8.532;2022-08-26T04:36:02;18.80;99.90
23081;DHT22;11708;50.570;8.532;2022-08-26T04:38:28;18.80;99.90
23081;DHT22;11708;50.570;8.532;2022-08-26T04:40:54;19.10;99.90
23081;DHT22;11708;50.570;8.532;2022-08-26T04:43:20;18.80;99.90
23081;DHT22;11708;50.570;8.532;2022-08-26T04:45:46;18.80;99.90
23081;DHT22;11708;50.570;8.532;2022-08-26T04:48:12;18.80;99.90
23081;DHT22;11708;50.570;8.532;2022-08-26T04:50:37;18.80;99.90
23081;DHT22;11708;50.570;8.532;2022-08-26T04:53:03;18.90;99.90
23081;DHT22;11708;50.570;8.532;2022-08-26T04:55:29;18.90;99.90
23081;DHT22;11708;50.570;8.532;2022-08-26T04:57:55;19.10;99.90
23081;DHT22;11708;50.570;8.532;2022-08-26T05:00:22;18.80;99.90
23081;DHT22;11708;50.570;8.532;2022-08-26T05:02:47;18.90;99.90
23081;DHT22;11708;50.570;8.532;2022-08-26T05:05:13;18.90;99.90
23081;DHT22;11708;50.570;8.532;2022-08-26T05:07:42;18.80;99.90
23081;DHT22;11708;50.570;8.532;2022-08-26T05:10:09;19.00;99.90
23081;DHT22;11708;50.570;8.532;2022-08-26T05:12:34;18.90;99.90
23081;DHT22;11708;50.570;8.532;2022-08-26T05:15:00;18.90;99.90
23081;DHT22;11708;50.570;8.532;2022-08-26T05:17:25;19.00;99.90
23081;DHT22;11708;50.570;8.532;2022-08-26T05:19:51;19.00;99.90
23081;DHT22;11708;50.570;8.532;2022-08-26T05:22:17;18.90;99.90
23081;DHT22;11708;50.570;8.532;2022-08-26T05:24:42;18.90;99.90
23081;DHT22;11708;50.570;8.532;2022-08-26T05:27:12;19.10;99.90
23081;DHT22;11708;50.570;8.532;2022-08-26T05:29:39;19.30;99.90
23081;DHT22;11708;50.570;8.532;2022-08-26T05:32:05;19.00;99.90
23081;DHT22;11708;50.570;8.532;2022-08-26T05:34:31;18.90;99.90
23081;DHT22;11708;50.570;8.532;2022-08-26T05:36:57;19.00;99.90
23081;DHT22;11708;50.570;8.532;2022-08-26T05:39:22;19.00;99.90
23081;DHT22;11708;50.570;8.532;2022-08-26T05:41:49;19.00;99.90
23081;DHT22;11708;50.570;8.532;2022-08-26T05:44:15;19.30;99.90
23081;DHT22;11708;50.570;8.532;2022-08-26T05:46:47;19.00;99.90
23081;DHT22;11708;50.570;8.532;2022-08-26T05:49:14;19.00;99.90
23081;DHT22;11708;50.570;8.532;2022-08-26T05:51:42;19.10;99.90
23081;DHT22;11708;50.570;8.532;2022-08-26T05:54:10;19.40;99.90
23081;DHT22;11708;50.570;8.532;2022-08-26T05:56:37;19.20;99.90
23081;DHT22;11708;50.570;8.532;2022-08-26T05:59:03;19.50;99.90
23081;DHT22;11708;50.570;8.532;2022-08-26T06:01:31;19.20;99.90
23081;DHT22;11708;50.570;8.532;2022-08-26T06:04:00;19.10;99.90
23081;DHT22;11708;50.570;8.532;2022-08-26T06:06:29;19.20;99.90
23081;DHT22;11708;50.570;8.532;2022-08-26T06:08:56;19.10;99.90
23081;DHT22;11708;50.570;8.532;2022-08-26T06:11:28;19.20;99.90
23081;DHT22;11708;50.570;8.532;2022-08-26T06:14:01;19.20;99.90
23081;DHT22;11708;50.570;8.532;2022-08-26T06:16:27;19.50;99.90
23081;DHT22;11708;50.570;8.532;2022-08-26T06:18:53;19.50;99.90
23081;DHT22;11708;50.570;8.532;2022-08-26T06:21:24;19.40;99.90
23081;DHT22;11708;50.570;8.532;2022-08-26T06:23:51;19.40;99.90
23081;DHT22;11708;50.570;8.532;2022-08-26T06:26:36;19.50;99.90
23081;DHT22;11708;50.570;8.532;2022-08-26T06:29:03;19.80;99.90
23081;DHT22;11708;50.570;8.532;2022-08-26T06:31:30;19.50;99.90
23081;DHT22;11708;50.570;8.532;2022-08-26T06:33:56;19.60;99.90
23081;DHT22;11708;50.570;8.532;2022-08-26T06:36:25;19.70;99.90
23081;DHT22;11708;50.570;8.532;2022-08-26T06:38:52;19.50;99.90
23081;DHT22;11708;50.570;8.532;2022-08-26T06:41:20;19.80;99.90
23081;DHT22;11708;50.570;8.532;2022-08-26T06:43:47;19.90;99.90
23081;DHT22;11708;50.570;8.532;2022-08-26T06:46:14;20.00;99.90
23081;DHT22;11708;50.570;8.532;2022-08-26T06:48:44;20.00;99.90
23081;DHT22;11708;50.570;8.532;2022-08-26T06:51:16;20.20;99.90
23081;DHT22;11708;50.570;8.532;2022-08-26T06:53:44;20.70;99.90
23081;DHT22;11708;50.570;8.532;2022-08-26T06:56:12;20.50;99.90
23081;DHT22;11708;50.570;8.532;2022-08-26T06:58:40;20.60;99.90
23081;DHT22;11708;50.570;8.532;2022-08-26T07:01:25;20.80;99.90
23081;DHT22;11708;50.570;8.532;2022-08-26T07:03:53;20.90;99.90
23081;DHT22;11708;50.570;8.532;2022-08-26T07:06:19;20.90;99.90
23081;DHT22;11708;50.570;8.532;2022-08-26T07:08:50;21.10;99.90
23081;DHT22;11708;50.570;8.532;2022-08-26T07:11:16;21.20;99.90
23081;DHT22;11708;50.570;8.532;2022-08-26T07:13:43;21.30;99.90
23081;DHT22;11708;50.570;8.532;2022-08-26T07:16:10;21.50;99.90
23081;DHT22;11708;50.570;8.532;2022-08-26T07:18:38;21.50;99.90
23081;DHT22;11708;50.570;8.532;2022-08-26T07:21:06;21.70;99.90
23081;DHT22;11708;50.570;8.532;2022-08-26T07:23:33;21.70;99.90
23081;DHT22;11708;50.570;8.532;2022-08-26T07:26:02;21.80;99.90
23081;DHT22;11708;50.570;8.532;2022-08-26T07:28:32;21.90;99.90
23081;DHT22;11708;50.570;8.532;2022-08-26T07:30:57;21.90;99.90
23081;DHT22;11708;50.570;8.532;2022-08-26T07:33:24;22.10;99.90
23081;DHT22;11708;50.570;8.532;2022-08-26T07:35:51;22.30;99.90
23081;DHT22;11708;50.570;8.532;2022-08-26T07:38:16;22.30;99.90
23081;DHT22;11708;50.570;8.532;2022-08-26T07:40:42;22.40;99.90
23081;DHT22;11708;50.570;8.532;2022-08-26T07:43:08;22.50;99.90
23081;DHT22;11708;50.570;8.532;2022-08-26T07:45:34;22.60;99.90
23081;DHT22;11708;50.570;8.532;2022-08-26T07:47:59;22.70;99.90
23081;DHT22;11708;50.570;8.532;2022-08-26T07:50:25;22.90;99.90
23081;DHT22;11708;50.570;8.532;2022-08-26T07:52:51;23.10;99.90
23081;DHT22;11708;50.570;8.532;2022-08-26T07:55:16;23.20;99.90
23081;DHT22;11708;50.570;8.532;2022-08-26T07:57:42;23.30;99.90
23081;DHT22;11708;50.570;8.532;2022-08-26T08:00:11;23.40;99.90
23081;DHT22;11708;50.570;8.532;2022-08-26T08:02:36;23.50;99.90
23081;DHT22;11708;50.570;8.532;2022-08-26T08:05:04;23.50;99.90
23081;DHT22;11708;50.570;8.532;2022-08-26T08:07:29;23.50;99.90
23081;DHT22;11708;50.570;8.532;2022-08-26T08:09:55;23.60;99.90
23081;DHT22;11708;50.570;8.532;2022-08-26T08:12:21;23.60;99.90
23081;DHT22;11708;50.570;8.532;2022-08-26T08:14:47;23.80;99.90
23081;DHT22;11708;50.570;8.532;2022-08-26T08:17:17;23.80;99.90
23081;DHT22;11708;50.570;8.532;2022-08-26T08:19:42;24.00;99.90
23081;DHT22;11708;50.570;8.532;2022-08-26T08:22:08;24.00;99.90
23081;DHT22;11708;50.570;8.532;2022-08-26T08:24:34;24.00;99.90
23081;DHT22;11708;50.570;8.532;2022-08-26T08:27:00;24.00;99.90
23081;DHT22;11708;50.570;8.532;2022-08-26T08:29:26;24.00;99.90
23081;DHT22;11708;50.570;8.532;2022-08-26T08:31:58;24.00;99.90
23081;DHT22;11708;50.570;8.532;2022-08-26T08:34:27;24.00;99.90
23081;DHT22;11708;50.570;8.532;2022-08-26T08:36:53;24.10;99.90
23081;DHT22;11708;50.570;8.532;2022-08-26T08:39:21;24.20;99.90
23081;DHT22;11708;50.570;8.532;2022-08-26T08:42:07;24.30;99.90
23081;DHT22;11708;50.570;8.532;2022-08-26T08:44:40;24.20;99.90
23081;DHT22;11708;50.570;8.532;2022-08-26T08:47:31;24.20;99.90
23081;DHT22;11708;50.570;8.532;2022-08-26T08:50:22;24.20;99.90
23081;DHT22;11708;50.570;8.532;2022-08-26T08:53:17;24.10;99.90
23081;DHT22;11708;50.570;8.532;2022-08-26T08:55:58;24.20;99.90
23081;DHT22;11708;50.570;8.532;2022-08-26T08:58:51;24.30;99.90
23081;DHT22;11708;50.570;8.532;2022-08-26T09:01:34;24.20;99.90
23081;DHT22;11708;50.570;8.532;2022-08-26T09:06:44;24.30;99.90
23081;DHT22;11708;50.570;8.532;2022-08-26T09:09:20;24.40;99.90
23081;DHT22;11708;50.570;8.532;2022-08-26T09:11:47;24.50;99.90
23081;DHT22;11708;50.570;8.532;2022-08-26T09:14:13;24.60;99.90
23081;DHT22;11708;50.570;8.532;2022-08-26T09:17:00;24.70;99.90
23081;DHT22;11708;50.570;8.532;2022-08-26T09:19:46;24.70;99.90
23081;DHT22;11708;50.570;8.532;2022-08-26T09:22:30;24.80;99.90
23081;DHT22;11708;50.570;8.532;2022-08-26T09:24:56;24.80;99.90
23081;DHT22;11708;50.570;8.532;2022-08-26T09:27:50;24.70;99.90
23081;DHT22;11708;50.570;8.532;2022-08-26T09:30:30;24.80;99.90
23081;DHT22;11708;50.570;8.532;2022-08-26T09:33:15;24.80;99.90
23081;DHT22;11708;50.570;8.532;2022-08-26T09:35:43;24.80;99.90
23081;DHT22;11708;50.570;8.532;2022-08-26T09:38:26;24.80;99.90
23081;DHT22;11708;50.570;8.532;2022-08-26T09:41:05;25.00;99.90
23081;DHT22;11708;50.570;8.532;2022-08-26T09:43:33;25.20;99.90
23081;DHT22;11708;50.570;8.532;2022-08-26T09:46:13;25.40;99.90
23081;DHT22;11708;50.570;8.532;2022-08-26T09:48:41;25.50;99.90
23081;DHT22;11708;50.570;8.532;2022-08-26T09:53:53;25.70;99.90
23081;DHT22;11708;50.570;8.532;2022-08-26T09:56:30;25.70;99.90
23081;DHT22;11708;50.570;8.532;2022-08-26T09:58:59;25.60;99.90
23081;DHT22;11708;50.570;8.532;2022-08-26T10:01:34;25.80;99.90
23081;DHT22;11708;50.570;8.532;2022-08-26T10:04:19;25.90;99.90
23081;DHT22;11708;50.570;8.532;2022-08-26T10:07:05;25.90;99.90
23081;DHT22;11708;50.570;8.532;2022-08-26T10:09:36;25.90;99.90
23081;DHT22;11708;50.570;8.532;2022-08-26T10:12:09;26.00;99.90
23081;DHT22;11708;50.570;8.532;2022-08-26T10:14:52;26.00;99.90
23081;DHT22;11708;50.570;8.532;2022-08-26T10:17:45;26.20;99.90
23081;DHT22;11708;50.570;8.532;2022-08-26T10:20:22;26.40;99.90
23081;DHT22;11708;50.570;8.532;2022-08-26T10:23:05;26.60;99.90
23081;DHT22;11708;50.570;8.532;2022-08-26T10:25:41;26.80;99.90
23081;DHT22;11708;50.570;8.532;2022-08-26T10:28:40;26.90;99.90
23081;DHT22;11708;50.570;8.532;2022-08-26T10:31:28;27.10;99.90
23081;DHT22;11708;50.570;8.532;2022-08-26T10:33:58;27.20;99.90
23081;DHT22;11708;50.570;8.532;2022-08-26T10:36:25;27.50;99.90
23081;DHT22;11708;50.570;8.532;2022-08-26T10:39:33;27.70;99.90
23081;DHT22;11708;50.570;8.532;2022-08-26T10:42:28;28.00;99.90
23081;DHT22;11708;50.570;8.532;2022-08-26T10:44:55;28.20;99.90
23081;DHT22;11708;50.570;8.532;2022-08-26T10:47:53;28.30;99.90
23081;DHT22;11708;50.570;8.532;2022-08-26T10:50:22;28.40;99.90
23081;DHT22;11708;50.570;8.532;2022-08-26T10:53:04;28.50;99.90
23081;DHT22;11708;50.570;8.532;2022-08-26T10:55:56;28.60;99.90
23081;DHT22;11708;50.570;8.532;2022-08-26T11:01:14;28.90;99.90
23081;DHT22;11708;50.570;8.532;2022-08-26T11:04:11;28.80;99.90
23081;DHT22;11708;50.570;8.532;2022-08-26T11:06:38;28.80;99.90
23081;DHT22;11708;50.570;8.532;2022-08-26T11:09:06;29.00;99.90
23081;DHT22;11708;50.570;8.532;2022-08-26T11:16:49;29.30;99.90
23081;DHT22;11708;50.570;8.532;2022-08-26T11:22:01;29.80;99.90
23081;DHT22;11708;50.570;8.532;2022-08-26T11:30:04;30.20;99.90
23081;DHT22;11708;50.570;8.532;2022-08-26T11:35:03;30.80;99.90
23081;DHT22;11708;50.570;8.532;2022-08-26T11:37:56;31.00;99.90
23081;DHT22;11708;50.570;8.532;2022-08-26T11:42:54;31.40;96.80
23081;DHT22;11708;50.570;8.532;2022-08-26T11:45:23;31.60;95.80
23081;DHT22;11708;50.570;8.532;2022-08-26T11:47:49;31.80;96.50
23081;DHT22;11708;50.570;8.532;2022-08-26T11:50:20;32.10;95.40
23081;DHT22;11708;50.570;8.532;2022-08-26T11:53:01;32.30;92.80
23081;DHT22;11708;50.570;8.532;2022-08-26T11:55:31;32.70;92.50
23081;DHT22;11708;50.570;8.532;2022-08-26T11:57:59;33.00;90.10
23081;DHT22;11708;50.570;8.532;2022-08-26T12:00:29;33.20;84.90
23081;DHT22;11708;50.570;8.532;2022-08-26T12:02:58;33.20;84.10
23081;DHT22;11708;50.570;8.532;2022-08-26T12:05:31;33.50;83.40
23081;DHT22;11708;50.570;8.532;2022-08-26T12:08:04;33.90;82.20
23081;DHT22;11708;50.570;8.532;2022-08-26T12:10:33;34.20;77.60
23081;DHT22;11708;50.570;8.532;2022-08-26T12:13:00;34.00;76.80
23081;DHT22;11708;50.570;8.532;2022-08-26T12:15:27;33.90;77.00
23081;DHT22;11708;50.570;8.532;2022-08-26T12:17:53;33.80;78.40
23081;DHT22;11708;50.570;8.532;2022-08-26T12:22:54;33.00;88.50
23081;DHT22;11708;50.570;8.532;2022-08-26T12:25:26;32.30;92.70
23081;DHT22;11708;50.570;8.532;2022-08-26T12:27:52;31.70;96.20
23081;DHT22;11708;50.570;8.532;2022-08-26T12:30:21;30.70;97.90
23081;DHT22;11708;50.570;8.532;2022-08-26T12:33:02;29.80;99.90
23081;DHT22;11708;50.570;8.532;2022-08-26T12:35:28;28.70;99.90
23081;DHT22;11708;50.570;8.532;2022-08-26T12:37:54;27.20;99.90
23081;DHT22;11708;50.570;8.532;2022-08-26T12:42:50;26.50;99.90
23081;DHT22;11708;50.570;8.532;2022-08-26T12:45:40;26.00;99.90
23081;DHT22;11708;50.570;8.532;2022-08-26T12:48:29;25.50;99.90
23081;DHT22;11708;50.570;8.532;2022-08-26T12:50:56;25.10;99.90
23081;DHT22;11708;50.570;8.532;2022-08-26T12:53:32;25.00;99.90
23081;DHT22;11708;50.570;8.532;2022-08-26T12:56:16;24.80;99.90
23081;DHT22;11708;50.570;8.532;2022-08-26T12:58:42;24.70;99.90
23081;DHT22;11708;50.570;8.532;2022-08-26T13:11:18;23.60;99.90
23081;DHT22;11708;50.570;8.532;2022-08-26T13:13:46;23.30;99.90
23081;DHT22;11708;50.570;8.532;2022-08-26T13:16:12;23.30;99.90
23081;DHT22;11708;50.570;8.532;2022-08-26T13:18:40;23.30;99.90
23081;DHT22;11708;50.570;8.532;2022-08-26T13:21:21;23.30;99.90
23081;DHT22;11708;50.570;8.532;2022-08-26T13:23:49;23.40;99.90
23081;DHT22;11708;50.570;8.532;2022-08-26T13:26:15;23.50;99.90
23081;DHT22;11708;50.570;8.532;2022-08-26T13:28:41;23.60;99.90
23081;DHT22;11708;50.570;8.532;2022-08-26T13:31:07;23.80;99.90
23081;DHT22;11708;50.570;8.532;2022-08-26T13:33:35;24.00;99.90
23081;DHT22;11708;50.570;8.532;2022-08-26T13:36:01;24.20;99.90
23081;DHT22;11708;50.570;8.532;2022-08-26T13:38:27;24.20;99.90
23081;DHT22;11708;50.570;8.532;2022-08-26T13:40:52;24.30;99.90
23081;DHT22;11708;50.570;8.532;2022-08-26T13:43:18;24.40;99.90
23081;DHT22;11708;50.570;8.532;2022-08-26T13:45:43;24.50;99.90
23081;DHT22;11708;50.570;8.532;2022-08-26T13:48:09;24.60;99.90
23081;DHT22;11708;50.570;8.532;2022-08-26T13:50:34;24.70;99.90
23081;DHT22;11708;50.570;8.532;2022-08-26T13:53:00;24.80;99.90
23081;DHT22;11708;50.570;8.532;2022-08-26T13:55:26;24.90;99.90
23081;DHT22;11708;50.570;8.532;2022-08-26T13:57:53;25.00;99.90
23081;DHT22;11708;50.570;8.532;2022-08-26T14:00:19;25.00;99.90
23081;DHT22;11708;50.570;8.532;2022-08-26T14:02:46;25.10;99.90
23081;DHT22;11708;50.570;8.532;2022-08-26T14:05:12;25.20;99.90
23081;DHT22;11708;50.570;8.532;2022-08-26T14:07:38;25.20;99.90
23081;DHT22;11708;50.570;8.532;2022-08-26T14:10:04;25.20;99.90
23081;DHT22;11708;50.570;8.532;2022-08-26T14:12:30;25.30;99.90
23081;DHT22;11708;50.570;8.532;2022-08-26T14:14:56;25.30;99.90
23081;DHT22;11708;50.570;8.532;2022-08-26T14:17:22;25.40;99.90
23081;DHT22;11708;50.570;8.532;2022-08-26T14:19:52;25.50;99.90
23081;DHT22;11708;50.570;8.532;2022-08-26T14:22:19;25.60;99.90
23081;DHT22;11708;50.570;8.532;2022-08-26T14:24:46;25.70;99.90
23081;DHT22;11708;50.570;8.532;2022-08-26T14:27:15;25.90;99.90
23081;DHT22;11708;50.570;8.532;2022-08-26T14:29:41;26.00;99.90
23081;DHT22;11708;50.570;8.532;2022-08-26T14:32:11;26.20;99.90
23081;DHT22;11708;50.570;8.532;2022-08-26T14:34:39;26.50;99.90
23081;DHT22;11708;50.570;8.532;2022-08-26T14:37:05;26.90;99.90
23081;DHT22;11708;50.570;8.532;2022-08-26T14:39:31;27.20;99.90
23081;DHT22;11708;50.570;8.532;2022-08-26T14:41:57;27.50;99.90
23081;DHT22;11708;50.570;8.532;2022-08-26T14:44:27;27.90;99.90
23081;DHT22;11708;50.570;8.532;2022-08-26T14:46:54;28.00;99.90
23081;DHT22;11708;50.570;8.532;2022-08-26T14:49:21;28.10;99.90
23081;DHT22;11708;50.570;8.532;2022-08-26T14:51:47;28.00;99.90
23081;DHT22;11708;50.570;8.532;2022-08-26T14:54:14;28.00;99.90
23081;DHT22;11708;50.570;8.532;2022-08-26T14:56:53;27.90;99.90
23081;DHT22;11708;50.570;8.532;2022-08-26T14:59:23;27.70;99.90
23081;DHT22;11708;50.570;8.532;2022-08-26T15:01:50;27.60;99.90
23081;DHT22;11708;50.570;8.532;2022-08-26T15:04:17;27.50;99.90
23081;DHT22;11708;50.570;8.532;2022-08-26T15:06:43;27.20;99.90
23081;DHT22;11708;50.570;8.532;2022-08-26T15:09:08;27.00;99.90
23081;DHT22;11708;50.570;8.532;2022-08-26T15:11:34;27.00;99.90
23081;DHT22;11708;50.570;8.532;2022-08-26T15:14:00;26.90;99.90
23081;DHT22;11708;50.570;8.532;2022-08-26T15:16:27;26.90;99.90
23081;DHT22;11708;50.570;8.532;2022-08-26T15:18:54;27.10;99.90
23081;DHT22;11708;50.570;8.532;2022-08-26T15:21:20;26.70;99.90
23081;DHT22;11708;50.570;8.532;2022-08-26T15:23:47;26.60;99.90
23081;DHT22;11708;50.570;8.532;2022-08-26T15:26:14;26.50;99.90
23081;DHT22;11708;50.570;8.532;2022-08-26T15:28:40;26.50;99.90
23081;DHT22;11708;50.570;8.532;2022-08-26T15:31:05;26.50;99.90
23081;DHT22;11708;50.570;8.532;2022-08-26T15:33:33;26.50;99.90
23081;DHT22;11708;50.570;8.532;2022-08-26T15:36:00;26.50;99.90
23081;DHT22;11708;50.570;8.532;2022-08-26T15:38:37;26.50;99.90
23081;DHT22;11708;50.570;8.532;2022-08-26T15:41:04;26.50;99.90
23081;DHT22;11708;50.570;8.532;2022-08-26T15:43:30;26.50;99.90
23081;DHT22;11708;50.570;8.532;2022-08-26T15:45:56;26.50;99.90
23081;DHT22;11708;50.570;8.532;2022-08-26T15:48:22;26.50;99.90
23081;DHT22;11708;50.570;8.532;2022-08-26T15:51:00;26.50;99.90
23081;DHT22;11708;50.570;8.532;2022-08-26T15:53:27;26.40;99.90
23081;DHT22;11708;50.570;8.532;2022-08-26T15:55:57;26.40;99.90
23081;DHT22;11708;50.570;8.532;2022-08-26T15:58:24;26.40;99.90
23081;DHT22;11708;50.570;8.532;2022-08-26T16:00:50;26.40;99.90
23081;DHT22;11708;50.570;8.532;2022-08-26T16:03:17;26.40;99.90
23081;DHT22;11708;50.570;8.532;2022-08-26T16:05:43;26.40;99.90
23081;DHT22;11708;50.570;8.532;2022-08-26T16:08:09;26.40;99.90
23081;DHT22;11708;50.570;8.532;2022-08-26T16:10:37;26.40;99.90
23081;DHT22;11708;50.570;8.532;2022-08-26T16:13:03;26.40;99.90
23081;DHT22;11708;50.570;8.532;2022-08-26T16:15:31;26.40;99.90
23081;DHT22;11708;50.570;8.532;2022-08-26T16:18:01;26.50;99.90
23081;DHT22;11708;50.570;8.532;2022-08-26T16:20:27;26.60;99.90
23081;DHT22;11708;50.570;8.532;2022-08-26T16:22:54;26.60;99.90
23081;DHT22;11708;50.570;8.532;2022-08-26T16:25:20;26.70;99.90
23081;DHT22;11708;50.570;8.532;2022-08-26T16:27:45;26.80;99.90
23081;DHT22;11708;50.570;8.532;2022-08-26T16:30:14;26.80;99.90
23081;DHT22;11708;50.570;8.532;2022-08-26T16:32:39;26.80;99.90